Minnetonka Mills, Minnesota
Current Conditions -  °F | °C
As of 10:53 AM on Saturday 25 Oct 2014 (Local Time) from KFCM Reporting Station
Clear Clear  
Wind Chill: 55°   Ceiling: Unl
Heat Index: 55°   Visibility: 10mi
Dew Point: 33°   Wind: 12mph
Humidity: 43%   Direction: 300°WNW
Pressure: 30.06"   Gusts: NA
Location:  44.9144°N, 93.4174°W
Report Text: KFCM 251553Z 30010KT 10SM CLR 13/01 A3006 RMK AO2 SLP180 T01280006
Loading
Personal Weather Stations






























Interactive Weather Map
Tropical Storm Tracking
New forecast layout! Learn more

10-Day Weather Forecast

Advertisements
Track Severe Weather on mobile